Lewis, New York
Current Conditions -  °F | °C
As of 7:20 AM on Thursday 18 Dec 2014 (Local Time) from KBTV Reporting Station
Light Snow Light Snow  
Wind Chill: 34°   Ceiling: 900
Heat Index: 34°   Visibility: 2mi
Dew Point: 31°   Wind: 3mph
Humidity: 89%   Direction: 350°N
Pressure: 29.8"   Gusts: NA
Location:  44.27°N, 73.57°W
Report Text: KBTV 181220Z 35003KT 2SM -SN BR FEW005 BKN009 OVC029 01/M01 A2980 RMK AO2 P0001 T00111006
Loading
Personal Weather Stations






























Interactive Weather Map New forecast layout! Learn more

10-Day Weather Forecast

Advertisements
Track Severe Weather on mobile